Prices Branch, Missouri
Current Conditions -  °F | °C
As of 12:55 AM on Saturday 20 Dec 2014 (Local Time) from KFYG Reporting Station
Haze Haze  
Wind Chill: 32°   Ceiling: 5500
Heat Index: 36°   Visibility: 6mi
Dew Point: 32°   Wind: 5mph
Humidity: 87%   Direction: 130°SE
Pressure: 30.25"   Gusts: NA
Location:  38.8882°N, 91.5312°W
Report Text: KFYG 200655Z AUTO 13004KT 6SM BR OVC055 02/00 A3025 RMK AO2
Loading
Personal Weather Stations






























Interactive Weather Map New forecast layout! Learn more

10-Day Weather Forecast

Advertisements
Track Severe Weather on mobile